Time;durP1;ratioP1;P1;durP2;ratioP2;P2;SDS_P1;SDS_P2;PMS_P1;PMS_P2;Temp;Humidity;BMP_temperature;BMP_pressure;BME280_temperature;BME280_humidity;BME280_pressure;Samples;Min_cycle;Max_cycle;Signal;HPM_P1;HPM_P2
2022/04/19 00:00:35;;;;;;;35.10;6.77;;;7.90;19.10;;;;;;5028160;28;20482;-59
2022/04/19 00:03:03;;;;;;;36.90;7.50;;;7.90;19.10;;;;;;5034988;28;20473;-59
2022/04/19 00:05:30;;;;;;;35.90;7.20;;;7.80;19.30;;;;;;5023090;28;20467;-59
2022/04/19 00:07:57;;;;;;;37.17;8.20;;;7.80;19.50;;;;;;5027314;28;21019;-59
2022/04/19 00:10:26;;;;;;;38.50;8.83;;;7.70;19.90;;;;;;5027270;28;20482;-62
2022/04/19 00:12:53;;;;;;;36.30;7.80;;;7.70;20.00;;;;;;5016615;28;20458;-61
2022/04/19 00:15:21;;;;;;;36.60;7.90;;;7.70;20.30;;;;;;5028120;28;20493;-59
2022/04/19 00:17:48;;;;;;;36.37;7.47;;;7.70;20.20;;;;;;5027010;28;20491;-59
2022/04/19 00:20:16;;;;;;;36.00;7.33;;;7.70;20.40;;;;;;5025613;28;20513;-58
2022/04/19 00:22:43;;;;;;;37.23;8.60;;;7.70;20.80;;;;;;5020055;28;21083;-59
2022/04/19 00:25:10;;;;;;;35.90;7.60;;;7.60;20.70;;;;;;5026242;28;20470;-60
2022/04/19 00:27:36;;;;;;;36.33;8.17;;;7.50;21.10;;;;;;5026985;28;20503;-58
2022/04/19 00:30:04;;;;;;;36.37;8.00;;;7.50;21.40;;;;;;5026408;28;20483;-59
2022/04/19 00:32:31;;;;;;;34.70;7.60;;;7.50;21.50;;;;;;5026050;28;20486;-61
2022/04/19 00:34:59;;;;;;;35.30;6.80;;;7.50;21.50;;;;;;5027548;28;20471;-61
2022/04/19 00:37:27;;;;;;;35.30;7.40;;;7.50;21.40;;;;;;5034632;28;21063;-60
2022/04/19 00:39:57;;;;;;;34.67;7.73;;;7.40;21.70;;;;;;5027212;28;20466;-60
2022/04/19 00:42:27;;;;;;;34.27;6.83;;;7.40;21.80;;;;;;5025199;28;20558;-61
2022/04/19 00:44:54;;;;;;;40.13;7.50;;;7.40;22.00;;;;;;5027884;28;20547;-62
2022/04/19 00:47:21;;;;;;;33.97;7.40;;;7.30;22.50;;;;;;5028018;28;20486;-60
2022/04/19 00:49:48;;;;;;;35.47;7.80;;;7.30;22.60;;;;;;5023751;28;20509;-58
2022/04/19 00:52:15;;;;;;;34.70;7.33;;;7.30;22.70;;;;;;5028478;28;20493;-59
2022/04/19 00:54:44;;;;;;;36.57;7.27;;;7.30;23.00;;;;;;5027499;28;20464;-59
2022/04/19 00:57:11;;;;;;;33.60;7.30;;;7.20;23.10;;;;;;5020646;28;20497;-60
2022/04/19 00:59:38;;;;;;;34.47;7.40;;;7.20;23.20;;;;;;5022561;28;20455;-59
2022/04/19 01:02:05;;;;;;;36.03;7.80;;;7.20;23.40;;;;;;5022169;28;20476;-58
2022/04/19 01:04:32;;;;;;;35.33;7.93;;;7.10;23.60;;;;;;5036812;28;20465;-59
2022/04/19 01:06:59;;;;;;;33.90;7.00;;;7.10;23.50;;;;;;5027149;28;20537;-60
2022/04/19 01:09:26;;;;;;;33.47;7.07;;;7.00;23.60;;;;;;5026704;28;20509;-61
2022/04/19 01:14:40;;;;;;;34.90;7.40;;;6.90;23.70;;;;;;5019629;28;20457;-60
2022/04/19 01:17:07;;;;;;;35.00;7.63;;;6.90;23.80;;;;;;5025420;28;20514;-59
2022/04/19 01:19:38;;;;;;;35.10;8.40;;;6.90;24.10;;;;;;5025179;28;20524;-59
2022/04/19 01:22:07;;;;;;;33.10;6.67;;;6.80;24.40;;;;;;5025301;28;20844;-59
2022/04/19 01:24:35;;;;;;;36.03;7.00;;;6.70;24.50;;;;;;5027216;28;20506;-60
2022/04/19 01:27:03;;;;;;;34.63;8.93;;;6.70;25.10;;;;;;5025628;28;20519;-60
2022/04/19 01:29:30;;;;;;;33.60;8.77;;;6.60;24.70;;;;;;5027013;28;20489;-59
2022/04/19 01:31:56;;;;;;;32.20;7.67;;;6.50;24.80;;;;;;5024133;28;20490;-61
2022/04/19 01:34:23;;;;;;;32.50;8.90;;;6.50;25.90;;;;;;5024126;28;20467;-62
2022/04/19 01:36:50;;;;;;;36.20;9.37;;;6.50;25.70;;;;;;5022578;28;20493;-61
2022/04/19 01:40:16;;;;;;;33.20;8.77;;;6.50;25.80;;;;;;5025166;28;20858;-62
2022/04/19 01:42:06;;;;;;;35.93;8.77;;;6.40;25.70;;;;;;5025344;28;20447;-61
2022/04/19 01:44:33;;;;;;;32.40;7.77;;;6.40;26.20;;;;;;5026304;28;20466;-62
2022/04/19 01:47:00;;;;;;;32.43;7.67;;;6.40;26.10;;;;;;5020440;28;20540;-59
2022/04/19 01:49:27;;;;;;;34.33;7.70;;;6.40;26.20;;;;;;5025622;28;20481;-59
2022/04/19 01:51:54;;;;;;;34.47;8.40;;;6.40;26.10;;;;;;5035265;28;20472;-59
2022/04/19 01:54:22;;;;;;;35.57;8.33;;;6.40;26.10;;;;;;5026104;28;20463;-59
2022/04/19 01:56:49;;;;;;;36.20;8.00;;;6.30;26.10;;;;;;5023125;28;20486;-59
2022/04/19 01:59:16;;;;;;;35.73;8.40;;;6.30;26.20;;;;;;5025234;28;20571;-59
2022/04/19 02:01:43;;;;;;;35.13;8.27;;;6.30;26.30;;;;;;5018346;28;21050;-60
2022/04/19 02:04:10;;;;;;;37.07;7.83;;;6.30;26.30;;;;;;5023224;28;21001;-59
2022/04/19 02:06:37;;;;;;;34.80;7.67;;;6.20;26.40;;;;;;5018079;28;20463;-57
2022/04/19 02:09:03;;;;;;;35.07;8.47;;;6.20;26.50;;;;;;5021893;28;20477;-60
2022/04/19 02:11:32;;;;;;;34.50;7.80;;;6.20;26.60;;;;;;5037808;28;20485;-58
2022/04/19 02:13:59;;;;;;;36.07;8.47;;;6.10;26.60;;;;;;5032499;28;20468;-59
2022/04/19 02:16:25;;;;;;;33.50;8.70;;;6.10;26.60;;;;;;5028659;28;20459;-59
2022/04/19 02:18:52;;;;;;;34.10;8.30;;;6.10;26.80;;;;;;5030453;28;20455;-61
2022/04/19 02:21:19;;;;;;;34.70;8.07;;;6.10;26.80;;;;;;5029710;28;20543;-58
2022/04/19 02:23:46;;;;;;;35.37;8.10;;;6.10;26.80;;;;;;5029406;28;21018;-61
2022/04/19 02:26:12;;;;;;;35.03;8.70;;;6.10;27.00;;;;;;5030067;28;20454;-60
2022/04/19 02:28:40;;;;;;;39.80;8.20;;;6.10;26.80;;;;;;5028292;28;20474;-62
2022/04/19 02:31:08;;;;;;;37.30;9.27;;;6.10;26.60;;;;;;5026059;28;20895;-60
2022/04/19 02:33:35;;;;;;;38.27;8.37;;;6.10;26.50;;;;;;5032060;28;20465;-59
2022/04/19 02:36:03;;;;;;;35.60;8.50;;;6.10;26.40;;;;;;5028897;28;20485;-59
2022/04/19 02:38:30;;;;;;;35.87;7.50;;;6.10;26.50;;;;;;5038283;28;20479;-59
2022/04/19 02:40:57;;;;;;;36.93;8.03;;;6.10;26.60;;;;;;5031057;28;20467;-60
2022/04/19 02:43:24;;;;;;;38.47;8.10;;;6.10;26.70;;;;;;5028664;28;21232;-63
2022/04/19 02:45:54;;;;;;;40.23;8.90;;;6.00;26.50;;;;;;5027345;28;20466;-59
2022/04/19 02:48:21;;;;;;;36.17;7.70;;;6.00;26.70;;;;;;5030257;28;21047;-57
2022/04/19 02:50:49;;;;;;;39.13;8.77;;;5.90;26.80;;;;;;5029716;28;20475;-62
2022/04/19 02:53:16;;;;;;;36.73;7.97;;;5.90;26.90;;;;;;5027564;28;20605;-59
2022/04/19 02:55:42;;;;;;;37.17;8.67;;;5.80;27.10;;;;;;5025150;28;20969;-61
2022/04/19 02:58:09;;;;;;;36.50;9.50;;;5.80;27.50;;;;;;5027701;28;20851;-61
2022/04/19 03:00:37;;;;;;;36.50;8.33;;;5.80;27.70;;;;;;5021992;28;20805;-60
2022/04/19 03:03:05;;;;;;;36.57;9.23;;;5.70;28.00;;;;;;5032747;28;20466;-59
2022/04/19 03:05:33;;;;;;;44.40;8.47;;;5.70;27.80;;;;;;5027769;28;20490;-58
2022/04/19 03:08:00;;;;;;;36.70;10.20;;;5.70;27.70;;;;;;5021820;28;20542;-60
2022/04/19 03:10:27;;;;;;;36.13;8.20;;;5.60;28.00;;;;;;5026696;28;20479;-62
2022/04/19 03:12:54;;;;;;;34.60;8.07;;;5.60;28.00;;;;;;5028342;28;20485;-59
2022/04/19 03:15:21;;;;;;;36.47;8.87;;;5.60;28.10;;;;;;5027714;28;20450;-59
2022/04/19 03:17:47;;;;;;;36.93;10.53;;;5.70;28.40;;;;;;5028922;28;20479;-61
2022/04/19 03:20:15;;;;;;;38.20;8.60;;;5.60;28.60;;;;;;5027948;28;20530;-61
2022/04/19 03:28:11;;;;;;;34.70;7.93;;;5.60;28.50;;;;;;5028789;28;20586;-62
2022/04/19 03:30:38;;;;;;;39.60;8.40;;;5.60;28.50;;;;;;5026858;28;20463;-62
2022/04/19 03:33:05;;;;;;;36.97;7.90;;;5.60;28.60;;;;;;5028260;28;20466;-59
2022/04/19 03:35:36;;;;;;;36.77;8.80;;;5.60;28.80;;;;;;5028113;28;20463;-61
2022/04/19 03:38:04;;;;;;;36.27;7.63;;;5.50;28.80;;;;;;5025278;28;20545;-62
2022/04/19 03:40:30;;;;;;;35.97;8.97;;;5.50;28.80;;;;;;5028990;28;21114;-63
2022/04/19 03:42:57;;;;;;;39.03;9.43;;;5.60;28.60;;;;;;5026881;28;20470;-62
2022/04/19 03:45:24;;;;;;;39.43;9.53;;;5.60;28.50;;;;;;5021338;28;20463;-59
2022/04/19 03:47:51;;;;;;;39.40;9.47;;;5.60;28.50;;;;;;5025665;28;20483;-59
2022/04/19 03:50:18;;;;;;;38.00;9.67;;;5.60;28.50;;;;;;5023570;28;20490;-62
2022/04/19 03:52:46;;;;;;;42.60;9.20;;;5.60;28.60;;;;;;5024738;28;20464;-62
2022/04/19 03:55:12;;;;;;;39.77;8.50;;;5.60;28.40;;;;;;5022856;28;20459;-59
2022/04/19 03:57:40;;;;;;;38.73;10.30;;;5.60;28.60;;;;;;5023909;28;20489;-59
2022/04/19 04:00:08;;;;;;;37.30;8.33;;;5.70;28.60;;;;;;5031307;28;20470;-59
2022/04/19 04:02:34;;;;;;;36.60;8.03;;;5.60;28.60;;;;;;5013603;28;20493;-60
2022/04/19 04:05:04;;;;;;;39.57;8.37;;;5.60;28.70;;;;;;5026441;28;20809;-60
2022/04/19 04:07:32;;;;;;;36.00;7.27;;;5.70;28.80;;;;;;5026981;28;20471;-61
2022/04/19 04:10:00;;;;;;;39.83;7.77;;;5.70;28.50;;;;;;5027466;28;20479;-59
2022/04/19 04:12:27;;;;;;;41.00;8.67;;;5.70;28.70;;;;;;5026133;28;20838;-59
2022/04/19 04:14:54;;;;;;;41.77;8.37;;;5.70;28.70;;;;;;5024975;28;20470;-59
2022/04/19 04:17:21;;;;;;;38.53;8.40;;;5.70;28.30;;;;;;5027641;28;20521;-60
2022/04/19 04:19:48;;;;;;;38.57;8.40;;;5.80;28.10;;;;;;5032415;28;20469;-62
2022/04/19 04:22:15;;;;;;;40.23;11.10;;;5.80;28.00;;;;;;5022413;28;20463;-60
2022/04/19 04:24:41;;;;;;;36.70;8.80;;;5.80;27.70;;;;;;5014232;28;20464;-60
2022/04/19 04:27:09;;;;;;;39.13;8.77;;;5.80;28.00;;;;;;5019445;28;20590;-59
2022/04/19 04:29:36;;;;;;;39.60;9.77;;;5.80;28.00;;;;;;5012086;28;20982;-60
2022/04/19 04:32:03;;;;;;;40.90;8.37;;;5.80;28.10;;;;;;5017531;28;20482;-60
2022/04/19 04:34:30;;;;;;;37.77;8.47;;;5.80;28.10;;;;;;5018939;28;20459;-59
2022/04/19 04:36:57;;;;;;;38.47;8.60;;;5.80;28.00;;;;;;5034108;28;21178;-60
2022/04/19 04:39:24;;;;;;;39.53;8.60;;;5.80;28.10;;;;;;5031449;28;20455;-59
2022/04/19 04:41:50;;;;;;;40.23;9.10;;;5.80;28.10;;;;;;5026183;28;20996;-60
2022/04/19 04:44:18;;;;;;;38.50;9.60;;;5.90;28.20;;;;;;5022637;28;20466;-60
2022/04/19 04:49:44;;;;;;;37.60;8.17;;;5.90;28.20;;;;;;5012331;28;20443;-59
2022/04/19 04:52:12;;;;;;;39.30;9.27;;;6.00;27.80;;;;;;5005108;28;20475;-60
2022/04/19 04:54:40;;;;;;;39.50;8.00;;;6.10;27.70;;;;;;5008136;28;20466;-59
2022/04/19 04:57:07;;;;;;;40.37;7.50;;;6.20;27.50;;;;;;5025847;28;20487;-60
2022/04/19 04:59:36;;;;;;;40.20;9.00;;;6.30;27.30;;;;;;5026099;28;20467;-60
2022/04/19 05:02:04;;;;;;;39.40;8.77;;;6.50;27.30;;;;;;5026152;28;20478;-59
2022/04/19 05:04:32;;;;;;;38.60;8.90;;;6.60;27.00;;;;;;5025234;28;20467;-60
2022/04/19 05:06:59;;;;;;;40.10;9.20;;;6.80;27.20;;;;;;5023437;28;20485;-60
2022/04/19 05:09:26;;;;;;;38.57;7.93;;;7.20;27.00;;;;;;5027329;28;20538;-61
2022/04/19 05:11:53;;;;;;;40.93;9.00;;;7.60;26.10;;;;;;5019454;28;20486;-60
2022/04/19 05:14:20;;;;;;;41.17;8.50;;;7.90;25.70;;;;;;5015598;28;20494;-60
2022/04/19 05:16:49;;;;;;;39.10;8.70;;;8.20;26.00;;;;;;5024489;28;20506;-59
2022/04/19 05:19:16;;;;;;;39.17;7.50;;;8.60;25.60;;;;;;5026170;28;20483;-60
2022/04/19 05:21:42;;;;;;;38.10;8.13;;;9.00;24.80;;;;;;5029738;28;20450;-60
2022/04/19 05:24:10;;;;;;;34.70;6.90;;;9.40;23.40;;;;;;5023516;28;20467;-60
2022/04/19 05:26:37;;;;;;;37.80;7.40;;;9.70;22.00;;;;;;5024013;28;20467;-62
2022/04/19 05:29:04;;;;;;;36.47;8.47;;;10.40;20.00;;;;;;5022942;28;20500;-60
2022/04/19 05:31:31;;;;;;;34.77;6.30;;;10.90;19.00;;;;;;5030999;28;20478;-60
2022/04/19 05:33:59;;;;;;;34.90;7.10;;;11.40;18.00;;;;;;5031242;28;20458;-61
2022/04/19 05:36:26;;;;;;;34.83;7.30;;;11.90;17.10;;;;;;5021026;28;20471;-60
2022/04/19 05:38:53;;;;;;;35.43;7.33;;;12.60;15.80;;;;;;5027360;28;20458;-60
2022/04/19 05:41:20;;;;;;;33.20;6.00;;;13.60;14.50;;;;;;5018014;28;20463;-61
2022/04/19 05:43:47;;;;;;;32.50;7.07;;;14.80;12.30;;;;;;5032100;28;21090;-60
2022/04/19 05:46:17;;;;;;;34.93;6.80;;;16.10;10.30;;;;;;5030761;28;20459;-60
2022/04/19 05:48:44;;;;;;;33.20;7.10;;;17.40;8.40;;;;;;5032587;28;20486;-60
2022/04/19 05:51:12;;;;;;;31.37;5.60;;;18.50;6.70;;;;;;5034009;28;21063;-60
2022/04/19 05:53:39;;;;;;;33.77;6.80;;;19.40;5.30;;;;;;5024664;28;20464;-61
2022/04/19 05:56:06;;;;;;;32.50;6.43;;;20.60;3.70;;;;;;5024516;28;20472;-60
2022/04/19 05:58:33;;;;;;;30.70;7.43;;;21.80;1.90;;;;;;5026797;28;20478;-61
2022/04/19 06:01:01;;;;;;;33.30;6.07;;;23.00;1.00;;;;;;5030653;28;20478;-60
2022/04/19 06:06:14;;;;;;;31.20;7.43;;;24.80;1.00;;;;;;5022115;28;20449;-60
2022/04/19 06:08:42;;;;;;;32.00;7.00;;;25.60;1.00;;;;;;5020752;28;20580;-61
2022/04/19 06:11:11;;;;;;;27.87;5.30;;;26.50;1.00;;;;;;5024348;28;20489;-61
2022/04/19 06:13:37;;;;;;;30.07;5.80;;;27.50;1.00;;;;;;5027032;28;20471;-62
2022/04/19 06:16:05;;;;;;;30.10;6.50;;;28.20;1.00;;;;;;5022864;28;20463;-60
2022/04/19 06:18:32;;;;;;;28.07;6.03;;;28.90;1.00;;;;;;5032721;28;20494;-60
2022/04/19 06:20:59;;;;;;;29.00;5.70;;;29.50;1.00;;;;;;5033619;28;20451;-61
2022/04/19 06:23:28;;;;;;;28.30;6.47;;;30.50;1.00;;;;;;5034756;28;20475;-61
2022/04/19 06:25:54;;;;;;;27.40;5.63;;;31.20;1.00;;;;;;5024313;28;20463;-60
2022/04/19 06:28:21;;;;;;;26.70;5.07;;;31.90;1.00;;;;;;5026234;28;20493;-60
2022/04/19 06:30:48;;;;;;;27.70;5.67;;;32.50;1.00;;;;;;5025289;28;20491;-61
2022/04/19 06:33:15;;;;;;;27.23;5.20;;;33.40;1.00;;;;;;5018874;28;21035;-61
2022/04/19 06:35:42;;;;;;;27.90;5.70;;;34.10;1.00;;;;;;5026002;28;20477;-59
2022/04/19 06:38:08;;;;;;;25.70;5.10;;;34.70;1.00;;;;;;5028312;28;20481;-61
2022/04/19 06:40:37;;;;;;;25.63;4.73;;;35.20;1.00;;;;;;5026618;28;20458;-63
2022/04/19 06:43:03;;;;;;;27.90;6.77;;;35.90;1.00;;;;;;5020415;28;20467;-61
2022/04/19 06:45:31;;;;;;;26.63;4.60;;;36.50;1.00;;;;;;5028453;28;21000;-62
2022/04/19 06:47:58;;;;;;;26.60;4.77;;;37.00;1.00;;;;;;5027804;28;20489;-61
2022/04/19 06:50:25;;;;;;;24.90;4.60;;;37.00;1.00;;;;;;5025469;28;20848;-61
2022/04/19 06:52:52;;;;;;;26.37;4.27;;;36.80;1.00;;;;;;5027636;28;20466;-62
2022/04/19 06:55:20;;;;;;;27.23;5.63;;;37.10;1.00;;;;;;5024334;28;20471;-62
2022/04/19 06:57:48;;;;;;;25.90;6.10;;;37.80;1.00;;;;;;5024766;28;20494;-62
2022/04/19 07:00:16;;;;;;;24.80;5.27;;;38.40;1.00;;;;;;5024253;28;20471;-62
2022/04/19 07:02:44;;;;;;;26.40;5.30;;;39.00;1.00;;;;;;5028692;28;20472;-63
2022/04/19 07:05:11;;;;;;;25.20;4.70;;;39.60;1.00;;;;;;5027349;28;20463;-63
2022/04/19 07:07:41;;;;;;;24.30;4.63;;;40.20;1.00;;;;;;5027809;28;20482;-63
2022/04/19 07:10:10;;;;;;;23.67;4.67;;;40.70;1.00;;;;;;5022962;28;20483;-62
2022/04/19 07:12:37;;;;;;;24.23;4.73;;;41.10;1.00;;;;;;5024241;28;20487;-62
2022/04/19 07:15:06;;;;;;;23.23;4.00;;;41.70;1.00;;;;;;5024247;28;20964;-62
2022/04/19 07:17:33;;;;;;;24.70;4.50;;;42.10;1.00;;;;;;5028018;28;20513;-62
2022/04/19 07:28:14;;;;;;;25.20;5.00;;;43.40;1.00;;;;;;5027056;28;20533;-63
2022/04/19 07:30:43;;;;;;;22.60;3.93;;;43.70;1.00;;;;;;5026314;28;21059;-63
2022/04/19 07:33:10;;;;;;;23.13;5.13;;;44.00;1.00;;;;;;5026414;28;20521;-63
2022/04/19 07:35:37;;;;;;;22.80;4.70;;;44.40;1.00;;;;;;5026245;28;20826;-64
2022/04/19 07:38:04;;;;;;;22.90;4.50;;;44.60;1.00;;;;;;5023576;28;20497;-63
2022/04/19 07:40:31;;;;;;;22.63;4.40;;;44.90;1.00;;;;;;5030650;28;20464;-60
2022/04/19 07:42:58;;;;;;;24.07;4.77;;;45.20;1.00;;;;;;5030751;28;20489;-59
2022/04/19 07:45:24;;;;;;;25.47;4.37;;;45.30;1.00;;;;;;5024130;28;20471;-58
2022/04/19 07:47:52;;;;;;;23.07;4.97;;;45.70;1.00;;;;;;5030777;28;20495;-59
2022/04/19 07:50:19;;;;;;;22.60;4.13;;;46.20;1.00;;;;;;5025007;28;20517;-58
2022/04/19 07:52:46;;;;;;;22.30;4.90;;;46.60;1.00;;;;;;5028716;28;20483;-62
2022/04/19 07:55:13;;;;;;;23.57;5.43;;;46.90;1.00;;;;;;5025762;28;20475;-60
2022/04/19 07:57:39;;;;;;;21.87;4.30;;;47.10;1.00;;;;;;5032904;28;20493;-63
2022/04/19 08:00:07;;;;;;;22.00;4.83;;;47.40;1.00;;;;;;5019138;28;20467;-63
2022/04/19 08:02:34;;;;;;;22.23;4.27;;;47.50;1.00;;;;;;5023365;28;20478;-63
2022/04/19 08:05:02;;;;;;;23.77;4.90;;;47.80;1.00;;;;;;5031337;28;20487;-63
2022/04/19 08:07:29;;;;;;;21.50;4.37;;;48.20;1.00;;;;;;5027099;28;20503;-62
2022/04/19 08:09:58;;;;;;;22.20;5.10;;;48.70;1.00;;;;;;5026419;28;20459;-62
2022/04/19 08:12:25;;;;;;;22.70;4.97;;;48.90;1.00;;;;;;5021880;28;20860;-63
2022/04/19 08:14:52;;;;;;;21.57;4.90;;;49.00;1.00;;;;;;5027170;28;20481;-60
2022/04/19 08:17:19;;;;;;;22.70;5.73;;;49.10;1.00;;;;;;5027620;28;20490;-60
2022/04/19 08:19:45;;;;;;;21.70;4.90;;;49.30;1.00;;;;;;5027851;28;20824;-63
2022/04/19 08:22:14;;;;;;;21.83;5.20;;;49.50;1.00;;;;;;5035596;28;20519;-62
2022/04/19 08:24:41;;;;;;;22.83;5.27;;;49.50;1.00;;;;;;5026227;28;20465;-62
2022/04/19 08:27:08;;;;;;;22.67;5.17;;;49.70;1.00;;;;;;5027130;28;21528;-62
2022/04/19 08:29:35;;;;;;;22.50;4.60;;;50.00;1.00;;;;;;5030489;28;20469;-63
2022/04/19 08:32:01;;;;;;;22.03;4.43;;;50.30;1.00;;;;;;5026337;28;20475;-61
2022/04/19 08:34:28;;;;;;;23.97;4.83;;;50.50;1.00;;;;;;5018693;28;21728;-62
2022/04/19 08:36:55;;;;;;;22.00;4.83;;;50.70;1.00;;;;;;5023260;28;20498;-67
2022/04/19 08:39:23;;;;;;;20.40;3.57;;;50.80;1.00;;;;;;5027442;28;20468;-62
2022/04/19 08:41:50;;;;;;;20.60;4.40;;;50.80;1.00;;;;;;5025437;28;20961;-62
2022/04/19 08:44:17;;;;;;;21.97;4.93;;;50.80;1.00;;;;;;5026302;28;20470;-62
2022/04/19 08:46:46;;;;;;;21.13;4.30;;;50.60;1.00;;;;;;5026112;28;21017;-63
2022/04/19 08:49:13;;;;;;;21.70;4.90;;;50.70;1.00;;;;;;5026007;28;20463;-61
2022/04/19 08:51:41;;;;;;;20.10;3.80;;;50.80;1.00;;;;;;5027005;28;20485;-62
2022/04/19 08:59:40;;;;;;;20.90;4.70;;;51.90;1.00;;;;;;5023379;28;20532;-62
2022/04/19 09:02:08;;;;;;;22.57;3.80;;;52.40;1.00;;;;;;5016734;28;20963;-62
2022/04/19 09:04:35;;;;;;;20.93;3.97;;;52.70;1.00;;;;;;5025290;28;20480;-62
2022/04/19 09:07:02;;;;;;;20.20;3.70;;;52.80;1.00;;;;;;5022139;28;20490;-62
2022/04/19 09:09:34;;;;;;;25.87;4.50;;;52.90;1.00;;;;;;5023062;28;20459;-62
2022/04/19 09:12:09;;;;;;;23.60;3.87;;;53.10;1.00;;;;;;5029521;28;20485;-66
2022/04/19 09:14:37;;;;;;;20.00;3.97;;;52.80;1.00;;;;;;5024894;28;20549;-63
2022/04/19 09:17:07;;;;;;;20.40;3.70;;;52.90;1.00;;;;;;5026813;28;20483;-63
2022/04/19 09:19:36;;;;;;;20.10;3.90;;;52.70;1.00;;;;;;5021987;28;20909;-62
2022/04/19 09:22:03;;;;;;;23.63;4.20;;;52.80;1.00;;;;;;5024095;28;20485;-61
2022/04/19 09:24:31;;;;;;;21.60;4.90;;;53.00;1.00;;;;;;5022864;28;20466;-61
2022/04/19 09:26:57;;;;;;;20.70;4.10;;;53.10;1.00;;;;;;5026658;28;20512;-62
2022/04/19 09:29:27;;;;;;;20.83;3.87;;;52.80;1.00;;;;;;5024133;28;20473;-62
2022/04/19 09:31:57;;;;;;;23.43;2.67;;;51.30;1.00;;;;;;5026118;28;20464;-63
2022/04/19 09:34:28;;;;;;;19.27;2.20;;;50.80;1.00;;;;;;5033024;28;20983;-63
2022/04/19 09:37:06;;;;;;;19.13;2.90;;;51.20;1.00;;;;;;5026744;28;20566;-62
2022/04/19 09:39:34;;;;;;;20.10;2.57;;;51.60;1.00;;;;;;5035569;28;20476;-61
2022/04/19 09:42:01;;;;;;;20.77;3.23;;;52.30;1.00;;;;;;5022984;28;20459;-62
2022/04/19 09:44:30;;;;;;;19.07;2.70;;;52.30;1.00;;;;;;5021318;28;20468;-62
2022/04/19 09:47:04;;;;;;;19.90;2.80;;;52.30;1.00;;;;;;5029150;28;20483;-62
2022/04/19 09:49:48;;;;;;;20.03;3.30;;;52.40;1.00;;;;;;5026210;28;20469;-63
2022/04/19 09:52:38;;;;;;;18.83;2.60;;;52.40;1.00;;;;;;5024835;28;20485;-61
2022/04/19 09:55:08;;;;;;;20.23;3.00;;;52.50;1.00;;;;;;5028330;28;20572;-62
2022/04/19 09:57:37;;;;;;;19.30;2.40;;;52.40;1.00;;;;;;5025038;28;20594;-63
2022/04/19 10:00:07;;;;;;;19.47;2.77;;;52.40;1.00;;;;;;5030402;28;20464;-62
2022/04/19 10:08:14;;;;;;;21.07;3.13;;;52.10;1.00;;;;;;5016633;28;21025;-61
2022/04/19 10:10:41;;;;;;;21.07;3.67;;;51.80;1.00;;;;;;5019731;28;20499;-61
2022/04/19 10:13:08;;;;;;;21.20;3.03;;;51.80;1.00;;;;;;5023064;28;20483;-61
2022/04/19 10:15:37;;;;;;;20.50;3.10;;;51.90;1.00;;;;;;5022997;28;20463;-62
2022/04/19 10:18:05;;;;;;;20.47;3.10;;;51.80;1.00;;;;;;5025361;28;21287;-62
2022/04/19 10:20:33;;;;;;;22.77;2.90;;;51.90;1.00;;;;;;5026652;28;20474;-61
2022/04/19 10:23:04;;;;;;;20.17;3.37;;;51.80;1.00;;;;;;5025170;28;20458;-62
2022/04/19 10:25:40;;;;;;;20.70;3.13;;;52.00;1.00;;;;;;5028264;28;20462;-64
2022/04/19 10:28:08;;;;;;;21.00;3.03;;;51.70;1.00;;;;;;5026541;28;20517;-60
2022/04/19 10:30:38;;;;;;;21.07;4.23;;;51.10;1.00;;;;;;5027301;28;20466;-62
2022/04/19 10:33:49;;;;;;;21.70;3.93;;;50.80;1.00;;;;;;5025046;28;20490;-61
2022/04/19 10:36:21;;;;;;;20.50;3.33;;;50.10;1.00;;;;;;5015046;28;20470;-59
2022/04/19 10:39:21;;;;;;;20.83;3.10;;;49.90;1.00;;;;;;5029360;28;21004;-64
2022/04/19 10:41:52;;;;;;;21.70;3.47;;;49.20;1.00;;;;;;5025891;28;20468;-63
2022/04/19 10:44:48;;;;;;;21.60;3.13;;;48.00;1.00;;;;;;5027101;28;20467;-63
2022/04/19 10:47:17;;;;;;;21.90;2.93;;;45.60;1.00;;;;;;5027651;28;20478;-65
2022/04/19 10:49:55;;;;;;;23.30;3.70;;;43.20;1.00;;;;;;5024065;28;20853;-64
2022/04/19 10:52:46;;;;;;;23.43;3.73;;;41.00;1.00;;;;;;5025055;28;20486;-61
2022/04/19 10:55:19;;;;;;;23.87;3.77;;;38.90;1.00;;;;;;5028348;28;20895;-62
2022/04/19 11:00:37;;;;;;;26.57;3.90;;;35.70;1.00;;;;;;5026753;28;20459;-62
2022/04/19 11:03:07;;;;;;;25.07;4.30;;;34.30;1.00;;;;;;5027448;28;20519;-62
2022/04/19 11:05:44;;;;;;;26.30;4.03;;;33.10;1.00;;;;;;5032294;28;21080;-62
2022/04/19 11:08:32;;;;;;;25.57;3.90;;;31.90;1.00;;;;;;5021973;28;20501;-62
2022/04/19 11:11:22;;;;;;;26.33;4.00;;;31.00;1.00;;;;;;5027333;28;20463;-62
2022/04/19 11:14:18;;;;;;;26.23;3.93;;;30.20;1.00;;;;;;5026583;28;20570;-62
2022/04/19 11:16:45;;;;;;;25.87;3.40;;;29.50;1.00;;;;;;5022925;28;20487;-62
2022/04/19 11:19:19;;;;;;;26.70;4.27;;;28.70;1.00;;;;;;5027620;28;20463;-61
2022/04/19 11:21:54;;;;;;;26.47;4.03;;;28.20;1.00;;;;;;5022755;28;20450;-65
2022/04/19 11:24:58;;;;;;;26.90;4.20;;;27.70;1.00;;;;;;5027838;28;20488;-64
2022/04/19 11:27:25;;;;;;;27.60;3.80;;;27.30;1.00;;;;;;5026669;28;20478;-63
2022/04/19 11:29:53;;;;;;;26.10;3.50;;;26.80;1.00;;;;;;5028072;28;20536;-62
2022/04/19 11:32:24;;;;;;;30.50;16.13;;;26.40;1.00;;;;;;4995296;28;21180;-62
2022/04/19 11:35:01;;;;;;;27.17;3.93;;;26.10;1.00;;;;;;5007017;28;20977;-63
2022/04/19 11:37:28;;;;;;;25.83;3.43;;;25.90;1.00;;;;;;5016320;28;20618;-62
2022/04/19 11:48:16;;;;;;;29.00;5.10;;;24.80;1.00;;;;;;5012577;28;20517;-66
2022/04/19 11:50:44;;;;;;;28.27;5.30;;;24.40;1.00;;;;;;5015609;28;20468;-66
2022/04/19 11:53:17;;;;;;;26.73;3.57;;;24.20;1.00;;;;;;5008620;28;21099;-67
2022/04/19 11:55:51;;;;;;;27.67;3.77;;;23.90;1.00;;;;;;5008235;28;20763;-66
2022/04/19 11:58:22;;;;;;;28.83;4.60;;;23.70;1.00;;;;;;5006208;28;20609;-62
2022/04/19 12:00:58;;;;;;;27.40;5.30;;;23.50;1.00;;;;;;5000404;28;21199;-63
2022/04/19 12:03:27;;;;;;;27.63;4.27;;;23.40;1.00;;;;;;5005105;28;20477;-62
2022/04/19 12:05:55;;;;;;;28.00;4.73;;;23.20;1.00;;;;;;5007401;28;20463;-63
2022/04/19 12:08:33;;;;;;;27.27;3.80;;;23.10;1.00;;;;;;5003720;28;20858;-63
2022/04/19 12:11:03;;;;;;;28.10;4.27;;;23.00;1.00;;;;;;5005209;28;20823;-63
2022/04/19 12:13:30;;;;;;;27.97;4.60;;;22.90;1.00;;;;;;5008152;28;20502;-62
2022/04/19 12:15:57;;;;;;;27.47;3.87;;;22.80;1.00;;;;;;5009630;28;20460;-61
2022/04/19 12:18:31;;;;;;;27.37;4.73;;;22.60;1.00;;;;;;5005010;28;20492;-62
2022/04/19 12:21:00;;;;;;;28.10;3.80;;;22.50;1.00;;;;;;5009826;28;20473;-63
2022/04/19 12:23:27;;;;;;;28.63;4.37;;;22.30;1.00;;;;;;5008100;28;20464;-62
2022/04/19 12:26:01;;;;;;;28.63;3.30;;;22.20;1.00;;;;;;5006579;28;20465;-63
2022/04/19 12:28:40;;;;;;;27.60;4.53;;;22.10;1.00;;;;;;5010043;28;20827;-62
2022/04/19 12:31:07;;;;;;;30.40;4.47;;;22.10;1.00;;;;;;5007857;28;20487;-64
2022/04/19 12:33:35;;;;;;;28.73;4.03;;;22.10;1.00;;;;;;5009915;28;20861;-62
2022/04/19 12:36:11;;;;;;;28.47;4.10;;;22.10;1.00;;;;;;5010932;28;20471;-63
2022/04/19 12:38:38;;;;;;;27.80;4.33;;;22.00;1.00;;;;;;5009311;28;20482;-62
2022/04/19 12:41:15;;;;;;;26.77;3.50;;;22.00;1.00;;;;;;5004413;28;20735;-63
2022/04/19 12:43:47;;;;;;;26.50;3.53;;;22.00;1.00;;;;;;5006178;28;20465;-64
2022/04/19 12:46:14;;;;;;;27.30;3.93;;;22.00;1.00;;;;;;5008440;28;20463;-62
2022/04/19 12:48:53;;;;;;;27.63;3.57;;;22.00;1.00;;;;;;5005864;28;20499;-62
2022/04/19 12:51:25;;;;;;;27.43;4.20;;;21.90;1.00;;;;;;5010821;28;20463;-63
2022/04/19 12:54:02;;;;;;;28.20;3.67;;;21.80;1.00;;;;;;5004226;28;20902;-61
2022/04/19 12:56:29;;;;;;;29.83;4.17;;;21.70;1.00;;;;;;5009685;28;20529;-63
2022/04/19 12:58:56;;;;;;;28.60;4.90;;;21.50;1.00;;;;;;5007908;28;21061;-62
2022/04/19 13:01:23;;;;;;;27.97;4.23;;;21.50;1.00;;;;;;5002669;28;20488;-62
2022/04/19 13:03:50;;;;;;;32.27;4.43;;;21.40;1.00;;;;;;5000781;28;20466;-63
2022/04/19 13:14:31;;;;;;;29.80;5.30;;;21.40;1.00;;;;;;4999449;28;20506;-63
2022/04/19 13:16:58;;;;;;;28.27;5.10;;;21.40;1.00;;;;;;4999605;28;20484;-63
2022/04/19 13:19:25;;;;;;;29.80;4.83;;;21.30;1.00;;;;;;5003756;28;20460;-63
2022/04/19 13:21:52;;;;;;;28.83;4.30;;;21.20;1.00;;;;;;5008432;28;20455;-63
2022/04/19 13:24:20;;;;;;;27.90;5.47;;;21.10;1.00;;;;;;5008017;28;20467;-62
2022/04/19 13:26:47;;;;;;;27.47;4.50;;;21.10;1.00;;;;;;5014531;28;20478;-62
2022/04/19 13:29:14;;;;;;;27.93;5.17;;;21.00;1.90;;;;;;5005223;28;20464;-62
2022/04/19 13:31:42;;;;;;;28.17;4.63;;;21.00;1.00;;;;;;4997540;28;21066;-64
2022/04/19 13:34:09;;;;;;;30.03;4.53;;;20.90;1.00;;;;;;5003728;28;21026;-63
2022/04/19 13:36:37;;;;;;;28.77;5.00;;;20.90;1.00;;;;;;5001798;28;20469;-63
2022/04/19 13:39:05;;;;;;;30.00;4.50;;;20.90;1.00;;;;;;5006994;28;20587;-64
2022/04/19 13:41:33;;;;;;;28.30;4.10;;;21.00;1.00;;;;;;5004062;28;20460;-64
2022/04/19 13:44:00;;;;;;;28.83;4.17;;;20.90;1.00;;;;;;5008796;28;20471;-63
2022/04/19 13:46:27;;;;;;;28.93;5.90;;;20.80;1.00;;;;;;5002480;28;20491;-62